sensor_id;sensor_type;location;lat;lon;timestamp;pressure;altitude;pressure_sealevel;temperature;humidity
74615;BME280;63121;51.458;-0.110;2023-02-11T00:00:05;103453.09;;;11.69;64.59
74615;BME280;63121;51.458;-0.110;2023-02-11T00:02:32;103467.56;;;11.32;65.83
74615;BME280;63121;51.458;-0.110;2023-02-11T00:04:57;103464.00;;;11.59;65.47
74615;BME280;63121;51.458;-0.110;2023-02-11T00:07:23;103461.66;;;11.38;66.04
74615;BME280;63121;51.458;-0.110;2023-02-11T00:09:48;103455.50;;;11.33;66.16
74615;BME280;63121;51.458;-0.110;2023-02-11T00:12:14;103454.31;;;11.22;66.75
74615;BME280;63121;51.458;-0.110;2023-02-11T00:14:40;103456.13;;;10.97;68.38
74615;BME280;63121;51.458;-0.110;2023-02-11T00:17:05;103451.41;;;10.84;69.26
74615;BME280;63121;51.458;-0.110;2023-02-11T00:19:30;103456.78;;;10.64;69.45
74615;BME280;63121;51.458;-0.110;2023-02-11T00:21:56;103456.03;;;11.23;68.18
74615;BME280;63121;51.458;-0.110;2023-02-11T00:24:21;103461.38;;;11.00;68.04
74615;BME280;63121;51.458;-0.110;2023-02-11T00:26:47;103462.22;;;11.28;67.35
74615;BME280;63121;51.458;-0.110;2023-02-11T00:29:12;103465.34;;;10.89;68.64
74615;BME280;63121;51.458;-0.110;2023-02-11T00:31:38;103460.31;;;10.93;68.46
74615;BME280;63121;51.458;-0.110;2023-02-11T00:34:03;103463.66;;;11.18;68.09
74615;BME280;63121;51.458;-0.110;2023-02-11T00:36:29;103465.59;;;11.25;67.72
74615;BME280;63121;51.458;-0.110;2023-02-11T00:38:56;103457.72;;;11.21;67.75
74615;BME280;63121;51.458;-0.110;2023-02-11T00:41:22;103461.28;;;11.24;67.52
74615;BME280;63121;51.458;-0.110;2023-02-11T00:43:47;103464.84;;;11.58;66.67
74615;BME280;63121;51.458;-0.110;2023-02-11T00:46:14;103469.28;;;10.77;69.19
74615;BME280;63121;51.458;-0.110;2023-02-11T00:48:42;103470.75;;;11.24;67.52
74615;BME280;63121;51.458;-0.110;2023-02-11T00:51:08;103468.16;;;11.24;67.83
74615;BME280;63121;51.458;-0.110;2023-02-11T00:53:34;103470.03;;;11.01;69.04
74615;BME280;63121;51.458;-0.110;2023-02-11T00:55:59;103471.31;;;11.15;68.47
74615;BME280;63121;51.458;-0.110;2023-02-11T00:58:25;103464.91;;;11.31;67.64
74615;BME280;63121;51.458;-0.110;2023-02-11T01:00:51;103460.19;;;11.46;67.51
74615;BME280;63121;51.458;-0.110;2023-02-11T01:03:17;103468.75;;;10.88;69.11
74615;BME280;63121;51.458;-0.110;2023-02-11T01:05:42;103468.72;;;11.15;67.99
74615;BME280;63121;51.458;-0.110;2023-02-11T01:08:08;103470.69;;;11.22;68.26
74615;BME280;63121;51.458;-0.110;2023-02-11T01:10:33;103471.53;;;10.94;68.95
74615;BME280;63121;51.458;-0.110;2023-02-11T01:12:59;103474.47;;;11.33;67.38
74615;BME280;63121;51.458;-0.110;2023-02-11T01:15:25;103467.75;;;11.38;67.84
74615;BME280;63121;51.458;-0.110;2023-02-11T01:17:51;103469.06;;;11.54;67.33
74615;BME280;63121;51.458;-0.110;2023-02-11T01:20:20;103474.88;;;11.18;68.30
74615;BME280;63121;51.458;-0.110;2023-02-11T01:22:46;103470.47;;;11.45;68.00
74615;BME280;63121;51.458;-0.110;2023-02-11T01:25:11;103472.44;;;11.23;68.54
74615;BME280;63121;51.458;-0.110;2023-02-11T01:27:37;103469.31;;;11.06;68.55
74615;BME280;63121;51.458;-0.110;2023-02-11T01:30:04;103469.63;;;11.15;68.23
74615;BME280;63121;51.458;-0.110;2023-02-11T01:32:30;103465.94;;;11.07;68.87
74615;BME280;63121;51.458;-0.110;2023-02-11T01:34:56;103464.22;;;11.08;69.00
74615;BME280;63121;51.458;-0.110;2023-02-11T01:37:21;103457.13;;;11.02;69.45
74615;BME280;63121;51.458;-0.110;2023-02-11T01:39:47;103453.22;;;11.15;68.91
74615;BME280;63121;51.458;-0.110;2023-02-11T01:42:16;103446.50;;;11.20;68.78
74615;BME280;63121;51.458;-0.110;2023-02-11T01:44:42;103446.75;;;11.29;68.54
74615;BME280;63121;51.458;-0.110;2023-02-11T01:47:07;103451.88;;;11.28;67.93
74615;BME280;63121;51.458;-0.110;2023-02-11T01:49:38;103448.88;;;11.14;68.77
74615;BME280;63121;51.458;-0.110;2023-02-11T01:52:20;103447.50;;;11.25;68.71
74615;BME280;63121;51.458;-0.110;2023-02-11T01:54:52;103450.22;;;11.30;68.12
74615;BME280;63121;51.458;-0.110;2023-02-11T01:57:39;103457.66;;;11.48;68.06
74615;BME280;63121;51.458;-0.110;2023-02-11T02:00:24;103450.22;;;11.30;68.59
74615;BME280;63121;51.458;-0.110;2023-02-11T02:03:10;103447.19;;;11.45;67.95
74615;BME280;63121;51.458;-0.110;2023-02-11T02:05:43;103447.81;;;11.36;68.10
74615;BME280;63121;51.458;-0.110;2023-02-11T02:08:20;103442.19;;;11.21;68.88
74615;BME280;63121;51.458;-0.110;2023-02-11T02:10:49;103436.97;;;11.19;68.74
74615;BME280;63121;51.458;-0.110;2023-02-11T02:13:19;103443.66;;;11.12;68.85
74615;BME280;63121;51.458;-0.110;2023-02-11T02:15:55;103439.56;;;10.90;70.35
74615;BME280;63121;51.458;-0.110;2023-02-11T02:26:36;103427.41;;;11.16;69.01
74615;BME280;63121;51.458;-0.110;2023-02-11T02:32:09;103441.63;;;11.02;69.77
74615;BME280;63121;51.458;-0.110;2023-02-11T02:37:08;103436.09;;;11.18;69.32
74615;BME280;63121;51.458;-0.110;2023-02-11T02:39:36;103436.97;;;11.19;69.82
74615;BME280;63121;51.458;-0.110;2023-02-11T02:42:04;103428.47;;;11.52;67.84
74615;BME280;63121;51.458;-0.110;2023-02-11T02:44:30;103434.13;;;11.40;68.90
74615;BME280;63121;51.458;-0.110;2023-02-11T02:46:56;103425.91;;;11.53;68.51
74615;BME280;63121;51.458;-0.110;2023-02-11T02:49:21;103423.03;;;11.43;68.53
74615;BME280;63121;51.458;-0.110;2023-02-11T03:00:10;103416.16;;;11.14;69.34
74615;BME280;63121;51.458;-0.110;2023-02-11T03:10:38;103411.00;;;10.86;70.67
74615;BME280;63121;51.458;-0.110;2023-02-11T03:13:06;103405.44;;;11.02;70.21
74615;BME280;63121;51.458;-0.110;2023-02-11T03:15:36;103404.63;;;11.03;70.34
74615;BME280;63121;51.458;-0.110;2023-02-11T03:18:04;103409.78;;;11.03;69.92
74615;BME280;63121;51.458;-0.110;2023-02-11T03:20:35;103403.38;;;10.90;69.92
74615;BME280;63121;51.458;-0.110;2023-02-11T03:23:07;103401.00;;;10.98;69.66
74615;BME280;63121;51.458;-0.110;2023-02-11T03:25:38;103402.88;;;10.75;70.89
74615;BME280;63121;51.458;-0.110;2023-02-11T03:28:30;103402.75;;;10.70;70.93
74615;BME280;63121;51.458;-0.110;2023-02-11T03:33:54;103400.41;;;10.78;70.57
74615;BME280;63121;51.458;-0.110;2023-02-11T03:36:35;103406.16;;;10.69;71.07
74615;BME280;63121;51.458;-0.110;2023-02-11T03:39:03;103415.31;;;10.60;71.26
74615;BME280;63121;51.458;-0.110;2023-02-11T03:41:29;103412.69;;;10.32;71.93
74615;BME280;63121;51.458;-0.110;2023-02-11T03:43:57;103415.91;;;10.51;71.54
74615;BME280;63121;51.458;-0.110;2023-02-11T03:46:29;103412.59;;;10.55;71.54
74615;BME280;63121;51.458;-0.110;2023-02-11T03:49:00;103406.19;;;10.71;71.09
74615;BME280;63121;51.458;-0.110;2023-02-11T03:51:28;103413.41;;;10.54;71.56
74615;BME280;63121;51.458;-0.110;2023-02-11T03:53:57;103404.69;;;10.25;72.54
74615;BME280;63121;51.458;-0.110;2023-02-11T03:56:26;103398.81;;;10.54;71.72
74615;BME280;63121;51.458;-0.110;2023-02-11T03:58:53;103393.91;;;10.36;72.46
74615;BME280;63121;51.458;-0.110;2023-02-11T04:01:18;103404.63;;;10.49;71.75
74615;BME280;63121;51.458;-0.110;2023-02-11T04:03:43;103396.97;;;10.52;71.53
74615;BME280;63121;51.458;-0.110;2023-02-11T04:06:09;103402.78;;;10.45;71.58
74615;BME280;63121;51.458;-0.110;2023-02-11T04:08:34;103408.06;;;10.48;71.62
74615;BME280;63121;51.458;-0.110;2023-02-11T04:10:59;103397.75;;;10.49;71.52
74615;BME280;63121;51.458;-0.110;2023-02-11T04:13:25;103401.22;;;10.24;72.46
74615;BME280;63121;51.458;-0.110;2023-02-11T04:15:50;103404.41;;;10.68;70.65
74615;BME280;63121;51.458;-0.110;2023-02-11T04:18:15;103410.06;;;10.56;71.37
74615;BME280;63121;51.458;-0.110;2023-02-11T04:20:41;103405.66;;;10.54;71.52
74615;BME280;63121;51.458;-0.110;2023-02-11T04:23:06;103418.53;;;10.52;71.66
74615;BME280;63121;51.458;-0.110;2023-02-11T04:25:32;103416.59;;;10.72;70.84
74615;BME280;63121;51.458;-0.110;2023-02-11T04:27:57;103414.06;;;10.74;70.57
74615;BME280;63121;51.458;-0.110;2023-02-11T04:30:22;103415.41;;;10.90;70.07
74615;BME280;63121;51.458;-0.110;2023-02-11T04:32:48;103414.34;;;11.12;69.30
74615;BME280;63121;51.458;-0.110;2023-02-11T04:35:13;103419.47;;;11.10;69.40
74615;BME280;63121;51.458;-0.110;2023-02-11T04:37:38;103417.16;;;10.91;70.12
74615;BME280;63121;51.458;-0.110;2023-02-11T04:40:04;103428.44;;;11.22;69.50
74615;BME280;63121;51.458;-0.110;2023-02-11T04:42:30;103422.50;;;11.26;68.75
74615;BME280;63121;51.458;-0.110;2023-02-11T04:44:55;103425.09;;;11.26;68.81
74615;BME280;63121;51.458;-0.110;2023-02-11T04:47:20;103424.81;;;11.45;68.54
74615;BME280;63121;51.458;-0.110;2023-02-11T04:49:46;103427.59;;;11.51;67.94
74615;BME280;63121;51.458;-0.110;2023-02-11T04:52:11;103427.03;;;11.62;67.71
74615;BME280;63121;51.458;-0.110;2023-02-11T04:54:36;103428.41;;;11.50;67.63
74615;BME280;63121;51.458;-0.110;2023-02-11T04:57:02;103428.41;;;11.50;68.06
74615;BME280;63121;51.458;-0.110;2023-02-11T04:59:28;103440.16;;;11.10;69.06
74615;BME280;63121;51.458;-0.110;2023-02-11T05:01:53;103441.00;;;11.09;69.47
74615;BME280;63121;51.458;-0.110;2023-02-11T05:04:18;103445.59;;;11.48;68.00
74615;BME280;63121;51.458;-0.110;2023-02-11T05:06:44;103447.19;;;11.45;68.39
74615;BME280;63121;51.458;-0.110;2023-02-11T05:09:13;103444.63;;;11.45;68.28
74615;BME280;63121;51.458;-0.110;2023-02-11T05:11:38;103448.50;;;11.02;69.73
74615;BME280;63121;51.458;-0.110;2023-02-11T05:14:05;103450.88;;;11.23;68.95
74615;BME280;63121;51.458;-0.110;2023-02-11T05:16:30;103449.13;;;11.22;69.18
74615;BME280;63121;51.458;-0.110;2023-02-11T05:18:56;103435.84;;;11.11;69.71
74615;BME280;63121;51.458;-0.110;2023-02-11T05:21:21;103439.47;;;11.16;69.28
74615;BME280;63121;51.458;-0.110;2023-02-11T05:23:47;103440.66;;;11.27;69.25
74615;BME280;63121;51.458;-0.110;2023-02-11T05:26:13;103439.66;;;11.22;69.37
74615;BME280;63121;51.458;-0.110;2023-02-11T05:28:39;103438.16;;;11.02;69.52
74615;BME280;63121;51.458;-0.110;2023-02-11T05:31:05;103449.44;;;10.76;71.22
74615;BME280;63121;51.458;-0.110;2023-02-11T05:33:30;103447.69;;;11.03;70.12
74615;BME280;63121;51.458;-0.110;2023-02-11T05:36:00;103451.72;;;11.22;69.28
74615;BME280;63121;51.458;-0.110;2023-02-11T05:38:26;103450.50;;;11.39;69.19
74615;BME280;63121;51.458;-0.110;2023-02-11T05:40:52;103452.53;;;11.49;67.86
74615;BME280;63121;51.458;-0.110;2023-02-11T05:43:17;103451.13;;;11.32;69.13
74615;BME280;63121;51.458;-0.110;2023-02-11T05:45:43;103451.22;;;11.05;69.51
74615;BME280;63121;51.458;-0.110;2023-02-11T05:48:08;103439.59;;;11.21;68.99
74615;BME280;63121;51.458;-0.110;2023-02-11T05:50:33;103447.91;;;11.39;68.83
74615;BME280;63121;51.458;-0.110;2023-02-11T05:52:59;103443.53;;;11.08;69.48
74615;BME280;63121;51.458;-0.110;2023-02-11T05:55:24;103453.50;;;11.24;69.15
74615;BME280;63121;51.458;-0.110;2023-02-11T05:57:49;103441.53;;;10.99;69.62
74615;BME280;63121;51.458;-0.110;2023-02-11T06:00:15;103444.66;;;11.16;69.62
74615;BME280;63121;51.458;-0.110;2023-02-11T06:02:40;103442.84;;;11.13;69.66
74615;BME280;63121;51.458;-0.110;2023-02-11T06:05:06;103441.88;;;11.10;69.80
74615;BME280;63121;51.458;-0.110;2023-02-11T06:07:32;103433.25;;;10.82;70.69
74615;BME280;63121;51.458;-0.110;2023-02-11T06:09:57;103435.69;;;11.05;69.93
74615;BME280;63121;51.458;-0.110;2023-02-11T06:12:23;103429.72;;;11.07;70.09
74615;BME280;63121;51.458;-0.110;2023-02-11T06:14:49;103431.47;;;11.08;69.65
74615;BME280;63121;51.458;-0.110;2023-02-11T06:17:14;103426.78;;;11.24;69.20
74615;BME280;63121;51.458;-0.110;2023-02-11T06:19:39;103426.78;;;11.24;69.35
74615;BME280;63121;51.458;-0.110;2023-02-11T06:22:05;103437.88;;;11.21;69.44
74615;BME280;63121;51.458;-0.110;2023-02-11T06:24:30;103441.25;;;11.18;69.00
74615;BME280;63121;51.458;-0.110;2023-02-11T06:26:56;103437.28;;;11.30;68.97
74615;BME280;63121;51.458;-0.110;2023-02-11T06:29:21;103443.84;;;11.18;69.37
74615;BME280;63121;51.458;-0.110;2023-02-11T06:31:46;103442.13;;;11.17;69.34
74615;BME280;63121;51.458;-0.110;2023-02-11T06:34:12;103450.88;;;11.23;69.52
74615;BME280;63121;51.458;-0.110;2023-02-11T06:36:38;103431.09;;;10.96;69.91
74615;BME280;63121;51.458;-0.110;2023-02-11T06:39:04;103431.59;;;11.13;69.19
74615;BME280;63121;51.458;-0.110;2023-02-11T06:41:29;103445.13;;;11.04;69.41
74615;BME280;63121;51.458;-0.110;2023-02-11T06:43:55;103446.97;;;11.08;69.45
74615;BME280;63121;51.458;-0.110;2023-02-11T06:46:20;103456.50;;;11.38;68.73
74615;BME280;63121;51.458;-0.110;2023-02-11T06:48:46;103460.03;;;11.13;69.02
74615;BME280;63121;51.458;-0.110;2023-02-11T06:51:12;103456.19;;;11.27;69.03
74615;BME280;63121;51.458;-0.110;2023-02-11T06:53:40;103453.53;;;11.54;67.72
74615;BME280;63121;51.458;-0.110;2023-02-11T06:56:08;103464.84;;;11.58;67.45
74615;BME280;63121;51.458;-0.110;2023-02-11T06:58:34;103456.38;;;11.64;67.09
74615;BME280;63121;51.458;-0.110;2023-02-11T07:01:03;103462.47;;;11.66;67.48
74615;BME280;63121;51.458;-0.110;2023-02-11T07:03:31;103481.09;;;11.84;66.58
74615;BME280;63121;51.458;-0.110;2023-02-11T07:05:56;103469.47;;;11.70;67.18
74615;BME280;63121;51.458;-0.110;2023-02-11T07:08:22;103472.38;;;11.50;67.83
74615;BME280;63121;51.458;-0.110;2023-02-11T07:10:47;103475.50;;;11.38;68.19
74615;BME280;63121;51.458;-0.110;2023-02-11T07:13:12;103473.16;;;11.76;66.83
74615;BME280;63121;51.458;-0.110;2023-02-11T07:15:38;103487.28;;;11.57;67.81
74615;BME280;63121;51.458;-0.110;2023-02-11T07:18:03;103487.34;;;11.89;66.05
74615;BME280;63121;51.458;-0.110;2023-02-11T07:20:28;103492.59;;;11.92;66.52
74615;BME280;63121;51.458;-0.110;2023-02-11T07:22:54;103492.19;;;11.78;66.96
74615;BME280;63121;51.458;-0.110;2023-02-11T07:25:19;103493.44;;;11.63;67.51
74615;BME280;63121;51.458;-0.110;2023-02-11T07:27:44;103492.69;;;11.67;66.85
74615;BME280;63121;51.458;-0.110;2023-02-11T07:30:10;103498.50;;;11.88;66.60
74615;BME280;63121;51.458;-0.110;2023-02-11T07:32:36;103501.88;;;11.86;66.64
74615;BME280;63121;51.458;-0.110;2023-02-11T07:35:02;103507.50;;;12.01;66.20
74615;BME280;63121;51.458;-0.110;2023-02-11T07:37:27;103506.56;;;11.97;65.29
74615;BME280;63121;51.458;-0.110;2023-02-11T07:39:53;103507.78;;;11.82;66.35
74615;BME280;63121;51.458;-0.110;2023-02-11T07:42:18;103511.81;;;12.00;65.87
74615;BME280;63121;51.458;-0.110;2023-02-11T07:44:45;103515.84;;;11.91;65.93
74615;BME280;63121;51.458;-0.110;2023-02-11T07:47:10;103518.19;;;11.83;66.10
74615;BME280;63121;51.458;-0.110;2023-02-11T07:49:36;103511.44;;;11.88;66.39
74615;BME280;63121;51.458;-0.110;2023-02-11T07:52:01;103508.28;;;11.70;66.38
74615;BME280;63121;51.458;-0.110;2023-02-11T07:54:26;103499.97;;;11.80;66.25
74615;BME280;63121;51.458;-0.110;2023-02-11T07:56:52;103502.47;;;11.77;65.87
74615;BME280;63121;51.458;-0.110;2023-02-11T07:59:17;103507.25;;;11.63;66.66
74615;BME280;63121;51.458;-0.110;2023-02-11T08:01:43;103501.16;;;11.90;65.97
74615;BME280;63121;51.458;-0.110;2023-02-11T08:04:08;103504.94;;;11.44;67.02
74615;BME280;63121;51.458;-0.110;2023-02-11T08:06:34;103504.78;;;11.68;66.46
74615;BME280;63121;51.458;-0.110;2023-02-11T08:09:07;103492.63;;;11.94;65.70
74615;BME280;63121;51.458;-0.110;2023-02-11T08:11:34;103502.59;;;11.82;65.85
74615;BME280;63121;51.458;-0.110;2023-02-11T08:13:59;103498.38;;;11.55;66.45
74615;BME280;63121;51.458;-0.110;2023-02-11T08:16:35;103506.31;;;11.59;66.69
74615;BME280;63121;51.458;-0.110;2023-02-11T08:19:04;103504.34;;;11.52;66.30
74615;BME280;63121;51.458;-0.110;2023-02-11T08:21:30;103497.69;;;11.60;66.35
74615;BME280;63121;51.458;-0.110;2023-02-11T08:23:56;103505.53;;;11.64;65.88
74615;BME280;63121;51.458;-0.110;2023-02-11T08:26:24;103505.41;;;11.59;66.41
74615;BME280;63121;51.458;-0.110;2023-02-11T08:28:52;103502.03;;;11.62;66.19
74615;BME280;63121;51.458;-0.110;2023-02-11T08:31:23;103499.72;;;11.99;64.90
74615;BME280;63121;51.458;-0.110;2023-02-11T08:33:49;103507.66;;;11.77;65.46
74615;BME280;63121;51.458;-0.110;2023-02-11T08:36:22;103509.72;;;11.89;65.25
74615;BME280;63121;51.458;-0.110;2023-02-11T08:38:48;103519.00;;;12.11;64.62
74615;BME280;63121;51.458;-0.110;2023-02-11T08:41:13;103516.13;;;12.00;64.53
74615;BME280;63121;51.458;-0.110;2023-02-11T08:43:39;103516.28;;;12.06;64.36
74615;BME280;63121;51.458;-0.110;2023-02-11T08:46:06;103501.31;;;11.96;64.77
74615;BME280;63121;51.458;-0.110;2023-02-11T08:48:32;103510.06;;;11.99;64.81
74615;BME280;63121;51.458;-0.110;2023-02-11T08:50:57;103509.47;;;12.10;64.56
74615;BME280;63121;51.458;-0.110;2023-02-11T08:53:23;103518.59;;;12.29;63.61
74615;BME280;63121;51.458;-0.110;2023-02-11T08:55:50;103521.06;;;12.24;63.28
74615;BME280;63121;51.458;-0.110;2023-02-11T08:58:16;103519.06;;;12.14;63.91
74615;BME280;63121;51.458;-0.110;2023-02-11T09:00:41;103517.06;;;12.04;64.19
74615;BME280;63121;51.458;-0.110;2023-02-11T09:03:10;103513.25;;;11.91;64.81
74615;BME280;63121;51.458;-0.110;2023-02-11T09:05:43;103507.53;;;12.03;64.29
74615;BME280;63121;51.458;-0.110;2023-02-11T09:08:09;103514.06;;;12.20;63.90
74615;BME280;63121;51.458;-0.110;2023-02-11T09:10:34;103516.47;;;12.12;64.09
74615;BME280;63121;51.458;-0.110;2023-02-11T09:13:00;103515.19;;;12.30;63.27
74615;BME280;63121;51.458;-0.110;2023-02-11T09:15:25;103510.81;;;12.27;63.39
74615;BME280;63121;51.458;-0.110;2023-02-11T09:17:51;103514.66;;;12.43;62.83
74615;BME280;63121;51.458;-0.110;2023-02-11T09:20:16;103512.28;;;12.17;63.27
74615;BME280;63121;51.458;-0.110;2023-02-11T09:22:42;103519.19;;;12.50;62.26
74615;BME280;63121;51.458;-0.110;2023-02-11T09:25:07;103516.72;;;12.56;62.18
74615;BME280;63121;51.458;-0.110;2023-02-11T09:27:33;103519.53;;;12.64;61.83
74615;BME280;63121;51.458;-0.110;2023-02-11T09:29:58;103515.91;;;12.57;61.92
74615;BME280;63121;51.458;-0.110;2023-02-11T09:32:23;103528.44;;;12.40;62.76
74615;BME280;63121;51.458;-0.110;2023-02-11T09:34:49;103527.75;;;12.14;63.31
74615;BME280;63121;51.458;-0.110;2023-02-11T09:37:14;103526.97;;;12.50;61.90
74615;BME280;63121;51.458;-0.110;2023-02-11T09:39:39;103524.63;;;12.28;62.61
74615;BME280;63121;51.458;-0.110;2023-02-11T09:45:13;103524.81;;;12.67;61.44
74615;BME280;63121;51.458;-0.110;2023-02-11T09:47:59;103523.09;;;12.68;61.53
74615;BME280;63121;51.458;-0.110;2023-02-11T09:50:39;103529.94;;;12.66;61.26
74615;BME280;63121;51.458;-0.110;2023-02-11T09:55:38;103525.13;;;12.46;61.95
74615;BME280;63121;51.458;-0.110;2023-02-11T09:58:12;103529.09;;;13.01;60.63
74615;BME280;63121;51.458;-0.110;2023-02-11T10:00:54;103531.06;;;12.77;60.82
74615;BME280;63121;51.458;-0.110;2023-02-11T10:03:59;103536.41;;;12.48;61.85
74615;BME280;63121;51.458;-0.110;2023-02-11T10:06:48;103528.50;;;12.77;60.81
74615;BME280;63121;51.458;-0.110;2023-02-11T10:12:30;103528.31;;;13.06;59.56
74615;BME280;63121;51.458;-0.110;2023-02-11T10:15:14;103527.69;;;12.79;60.63
74615;BME280;63121;51.458;-0.110;2023-02-11T10:23:23;103536.94;;;13.05;60.54
74615;BME280;63121;51.458;-0.110;2023-02-11T10:25:51;103528.81;;;13.27;59.06
74615;BME280;63121;51.458;-0.110;2023-02-11T10:28:21;103538.66;;;13.40;58.92
74615;BME280;63121;51.458;-0.110;2023-02-11T10:31:12;103542.22;;;13.08;59.70
74615;BME280;63121;51.458;-0.110;2023-02-11T10:33:57;103542.25;;;13.09;59.60
74615;BME280;63121;51.458;-0.110;2023-02-11T10:36:35;103544.72;;;13.05;59.94
74615;BME280;63121;51.458;-0.110;2023-02-11T10:39:19;103549.25;;;13.13;59.21
74615;BME280;63121;51.458;-0.110;2023-02-11T10:41:46;103543.03;;;13.07;59.53
74615;BME280;63121;51.458;-0.110;2023-02-11T10:44:25;103545.97;;;12.84;60.36
74615;BME280;63121;51.458;-0.110;2023-02-11T10:46:52;103549.53;;;13.26;59.46
74615;BME280;63121;51.458;-0.110;2023-02-11T10:49:39;103551.47;;;13.72;58.14
74615;BME280;63121;51.458;-0.110;2023-02-11T10:52:25;103556.44;;;13.61;57.73
74615;BME280;63121;51.458;-0.110;2023-02-11T10:57:33;103549.53;;;13.63;57.66
74615;BME280;63121;51.458;-0.110;2023-02-11T11:02:53;103554.91;;;13.32;58.37
74615;BME280;63121;51.458;-0.110;2023-02-11T11:05:25;103554.88;;;13.68;57.70
74615;BME280;63121;51.458;-0.110;2023-02-11T11:07:58;103549.59;;;14.08;56.97
74615;BME280;63121;51.458;-0.110;2023-02-11T11:10:36;103556.56;;;13.68;57.68
74615;BME280;63121;51.458;-0.110;2023-02-11T11:13:26;103550.19;;;13.53;58.02
74615;BME280;63121;51.458;-0.110;2023-02-11T11:16:15;103559.78;;;13.56;57.69
74615;BME280;63121;51.458;-0.110;2023-02-11T11:18:43;103556.19;;;13.51;58.05
74615;BME280;63121;51.458;-0.110;2023-02-11T11:21:29;103568.91;;;13.78;57.14
74615;BME280;63121;51.458;-0.110;2023-02-11T11:23:59;103572.38;;;13.39;57.80
74615;BME280;63121;51.458;-0.110;2023-02-11T11:26:28;103564.16;;;13.58;57.86
74615;BME280;63121;51.458;-0.110;2023-02-11T11:29:25;103567.03;;;13.72;57.25
74615;BME280;63121;51.458;-0.110;2023-02-11T11:31:59;103560.31;;;13.41;58.31
74615;BME280;63121;51.458;-0.110;2023-02-11T11:34:37;103548.22;;;13.81;56.87
74615;BME280;63121;51.458;-0.110;2023-02-11T11:39:36;103547.69;;;13.56;57.31
74615;BME280;63121;51.458;-0.110;2023-02-11T11:42:23;103552.63;;;13.85;57.20
74615;BME280;63121;51.458;-0.110;2023-02-11T11:45:00;103548.31;;;13.86;57.00
74615;BME280;63121;51.458;-0.110;2023-02-11T11:50:26;103542.66;;;13.64;57.07
74615;BME280;63121;51.458;-0.110;2023-02-11T11:53:04;103544.56;;;13.73;56.82
74615;BME280;63121;51.458;-0.110;2023-02-11T11:55:44;103545.25;;;13.66;57.28
74615;BME280;63121;51.458;-0.110;2023-02-11T11:58:15;103539.25;;;13.67;57.38
74615;BME280;63121;51.458;-0.110;2023-02-11T12:04:10;103546.25;;;14.13;56.18
74615;BME280;63121;51.458;-0.110;2023-02-11T12:06:39;103543.91;;;14.26;55.55
74615;BME280;63121;51.458;-0.110;2023-02-11T12:09:29;103545.75;;;14.33;55.36
74615;BME280;63121;51.458;-0.110;2023-02-11T12:19:54;103541.81;;;14.08;55.60
74615;BME280;63121;51.458;-0.110;2023-02-11T12:22:33;103530.22;;;13.90;56.05
74615;BME280;63121;51.458;-0.110;2023-02-11T12:25:23;103537.59;;;14.14;55.11
74615;BME280;63121;51.458;-0.110;2023-02-11T12:28:20;103534.63;;;14.41;54.91
74615;BME280;63121;51.458;-0.110;2023-02-11T12:30:56;103531.13;;;14.39;54.95
74615;BME280;63121;51.458;-0.110;2023-02-11T12:39:22;103537.34;;;14.48;54.63
74615;BME280;63121;51.458;-0.110;2023-02-11T12:42:22;103535.56;;;13.99;55.42
74615;BME280;63121;51.458;-0.110;2023-02-11T12:55:22;103529.56;;;14.48;54.45
74615;BME280;63121;51.458;-0.110;2023-02-11T12:57:49;103524.44;;;14.51;53.93
74615;BME280;63121;51.458;-0.110;2023-02-11T13:00:17;103535.59;;;14.45;54.17
74615;BME280;63121;51.458;-0.110;2023-02-11T13:06:11;103530.31;;;14.40;53.88
74615;BME280;63121;51.458;-0.110;2023-02-11T13:08:49;103531.88;;;14.32;54.12
74615;BME280;63121;51.458;-0.110;2023-02-11T13:11:19;103525.63;;;14.21;54.20
74615;BME280;63121;51.458;-0.110;2023-02-11T13:14:06;103529.13;;;14.23;53.84
74615;BME280;63121;51.458;-0.110;2023-02-11T13:16:41;103522.13;;;14.19;53.97
74615;BME280;63121;51.458;-0.110;2023-02-11T13:30:12;103517.97;;;13.83;55.51
74615;BME280;63121;51.458;-0.110;2023-02-11T13:37:54;103519.69;;;13.84;55.14
74615;BME280;63121;51.458;-0.110;2023-02-11T13:42:52;103510.53;;;13.59;55.89
74615;BME280;63121;51.458;-0.110;2023-02-11T13:48:13;103518.50;;;14.11;54.05
74615;BME280;63121;51.458;-0.110;2023-02-11T13:50:47;103519.84;;;13.49;55.19
74615;BME280;63121;51.458;-0.110;2023-02-11T13:53:14;103509.69;;;13.60;55.25
74615;BME280;63121;51.458;-0.110;2023-02-11T13:55:51;103508.56;;;13.47;55.59
74615;BME280;63121;51.458;-0.110;2023-02-11T14:00:50;103513.06;;;13.19;56.67
74615;BME280;63121;51.458;-0.110;2023-02-11T14:19:34;103503.38;;;13.47;55.30
74615;BME280;63121;51.458;-0.110;2023-02-11T14:22:13;103506.31;;;14.08;54.36
74615;BME280;63121;51.458;-0.110;2023-02-11T14:24:50;103499.59;;;14.19;53.30
74615;BME280;63121;51.458;-0.110;2023-02-11T14:32:48;103499.38;;;14.07;53.58
74615;BME280;63121;51.458;-0.110;2023-02-11T14:35:28;103508.44;;;14.28;53.43
74615;BME280;63121;51.458;-0.110;2023-02-11T14:38:09;103506.78;;;13.87;53.81
74615;BME280;63121;51.458;-0.110;2023-02-11T14:40:55;103504.38;;;13.55;55.07
74615;BME280;63121;51.458;-0.110;2023-02-11T14:43:24;103500.88;;;13.52;54.43
74615;BME280;63121;51.458;-0.110;2023-02-11T14:45:53;103505.06;;;13.45;55.26
74615;BME280;63121;51.458;-0.110;2023-02-11T14:48:29;103500.81;;;13.50;54.58
74615;BME280;63121;51.458;-0.110;2023-02-11T14:51:01;103509.47;;;13.92;54.03
74615;BME280;63121;51.458;-0.110;2023-02-11T14:53:29;103508.88;;;13.62;54.63
74615;BME280;63121;51.458;-0.110;2023-02-11T14:55:56;103507.38;;;13.74;54.37
74615;BME280;63121;51.458;-0.110;2023-02-11T14:58:24;103510.47;;;13.57;54.56
74615;BME280;63121;51.458;-0.110;2023-02-11T15:00:59;103506.88;;;13.51;54.39
74615;BME280;63121;51.458;-0.110;2023-02-11T15:03:26;103505.03;;;13.07;55.90
74615;BME280;63121;51.458;-0.110;2023-02-11T15:05:55;103498.69;;;13.32;55.00